sensor_id;sensor_type;location;lat;lon;timestamp;P1;durP1;ratioP1;P2;durP2;ratioP2
54871;SDS011;43914;57.680;11.982;2023-07-08T00:00:52;10.10;;;3.20;;
54871;SDS011;43914;57.680;11.982;2023-07-08T00:03:18;10.60;;;3.20;;
54871;SDS011;43914;57.680;11.982;2023-07-08T00:05:45;12.60;;;3.40;;
54871;SDS011;43914;57.680;11.982;2023-07-08T00:08:13;11.10;;;3.40;;
54871;SDS011;43914;57.680;11.982;2023-07-08T00:10:40;16.30;;;3.80;;
54871;SDS011;43914;57.680;11.982;2023-07-08T00:13:07;12.90;;;3.50;;
54871;SDS011;43914;57.680;11.982;2023-07-08T00:15:33;12.30;;;3.60;;
54871;SDS011;43914;57.680;11.982;2023-07-08T00:18:01;11.40;;;3.60;;
54871;SDS011;43914;57.680;11.982;2023-07-08T00:20:37;9.70;;;3.30;;
54871;SDS011;43914;57.680;11.982;2023-07-08T00:23:04;10.30;;;3.30;;
54871;SDS011;43914;57.680;11.982;2023-07-08T00:25:30;12.20;;;3.20;;
54871;SDS011;43914;57.680;11.982;2023-07-08T00:27:57;12.30;;;3.60;;
54871;SDS011;43914;57.680;11.982;2023-07-08T00:30:25;12.50;;;3.50;;
54871;SDS011;43914;57.680;11.982;2023-07-08T00:32:53;11.70;;;3.50;;
54871;SDS011;43914;57.680;11.982;2023-07-08T00:35:20;12.10;;;3.40;;
54871;SDS011;43914;57.680;11.982;2023-07-08T00:38:15;11.20;;;3.60;;
54871;SDS011;43914;57.680;11.982;2023-07-08T00:40:49;11.40;;;3.60;;
54871;SDS011;43914;57.680;11.982;2023-07-08T00:48:50;12.80;;;3.40;;
54871;SDS011;43914;57.680;11.982;2023-07-08T00:51:20;14.20;;;3.90;;
54871;SDS011;43914;57.680;11.982;2023-07-08T00:53:47;12.50;;;3.50;;
54871;SDS011;43914;57.680;11.982;2023-07-08T01:01:25;15.90;;;3.40;;
54871;SDS011;43914;57.680;11.982;2023-07-08T01:03:53;11.40;;;3.80;;
54871;SDS011;43914;57.680;11.982;2023-07-08T01:06:21;9.20;;;3.40;;
54871;SDS011;43914;57.680;11.982;2023-07-08T01:08:57;14.00;;;3.50;;
54871;SDS011;43914;57.680;11.982;2023-07-08T01:11:30;12.70;;;4.00;;
54871;SDS011;43914;57.680;11.982;2023-07-08T01:13:58;10.30;;;3.50;;
54871;SDS011;43914;57.680;11.982;2023-07-08T01:16:25;10.90;;;3.00;;
54871;SDS011;43914;57.680;11.982;2023-07-08T01:18:51;13.10;;;3.60;;
54871;SDS011;43914;57.680;11.982;2023-07-08T01:21:28;13.10;;;3.80;;
54871;SDS011;43914;57.680;11.982;2023-07-08T01:26:24;11.20;;;3.30;;
54871;SDS011;43914;57.680;11.982;2023-07-08T01:28:51;12.90;;;3.50;;
54871;SDS011;43914;57.680;11.982;2023-07-08T01:31:18;10.50;;;3.70;;
54871;SDS011;43914;57.680;11.982;2023-07-08T01:33:46;13.20;;;3.60;;
54871;SDS011;43914;57.680;11.982;2023-07-08T01:36:11;10.90;;;3.20;;
54871;SDS011;43914;57.680;11.982;2023-07-08T01:38:37;14.50;;;3.70;;
54871;SDS011;43914;57.680;11.982;2023-07-08T01:41:04;15.00;;;3.70;;
54871;SDS011;43914;57.680;11.982;2023-07-08T01:43:30;11.50;;;3.40;;
54871;SDS011;43914;57.680;11.982;2023-07-08T01:45:58;11.10;;;3.30;;
54871;SDS011;43914;57.680;11.982;2023-07-08T01:48:27;14.10;;;3.50;;
54871;SDS011;43914;57.680;11.982;2023-07-08T01:51:03;11.50;;;3.60;;
54871;SDS011;43914;57.680;11.982;2023-07-08T01:53:34;16.70;;;3.60;;
54871;SDS011;43914;57.680;11.982;2023-07-08T01:56:02;15.20;;;3.20;;
54871;SDS011;43914;57.680;11.982;2023-07-08T01:58:29;11.70;;;3.50;;
54871;SDS011;43914;57.680;11.982;2023-07-08T02:00:55;13.50;;;3.20;;
54871;SDS011;43914;57.680;11.982;2023-07-08T02:03:21;13.50;;;3.10;;
54871;SDS011;43914;57.680;11.982;2023-07-08T02:05:47;14.50;;;3.50;;
54871;SDS011;43914;57.680;11.982;2023-07-08T02:08:15;14.00;;;3.80;;
54871;SDS011;43914;57.680;11.982;2023-07-08T02:10:41;12.30;;;3.60;;
54871;SDS011;43914;57.680;11.982;2023-07-08T02:13:08;12.80;;;3.70;;
54871;SDS011;43914;57.680;11.982;2023-07-08T02:15:33;13.40;;;3.70;;
54871;SDS011;43914;57.680;11.982;2023-07-08T02:17:59;13.30;;;3.10;;
54871;SDS011;43914;57.680;11.982;2023-07-08T02:20:25;11.80;;;3.40;;
54871;SDS011;43914;57.680;11.982;2023-07-08T02:22:50;12.90;;;4.00;;
54871;SDS011;43914;57.680;11.982;2023-07-08T02:25:16;13.50;;;3.60;;
54871;SDS011;43914;57.680;11.982;2023-07-08T02:27:41;12.60;;;3.50;;
54871;SDS011;43914;57.680;11.982;2023-07-08T02:30:08;14.50;;;3.50;;
54871;SDS011;43914;57.680;11.982;2023-07-08T02:32:35;9.90;;;2.90;;
54871;SDS011;43914;57.680;11.982;2023-07-08T02:35:07;10.80;;;3.20;;
54871;SDS011;43914;57.680;11.982;2023-07-08T02:37:34;12.50;;;3.50;;
54871;SDS011;43914;57.680;11.982;2023-07-08T02:40:00;12.80;;;3.20;;
54871;SDS011;43914;57.680;11.982;2023-07-08T02:42:26;15.50;;;3.70;;
54871;SDS011;43914;57.680;11.982;2023-07-08T02:44:51;11.30;;;3.30;;
54871;SDS011;43914;57.680;11.982;2023-07-08T02:47:17;12.80;;;3.70;;
54871;SDS011;43914;57.680;11.982;2023-07-08T02:49:42;10.50;;;3.70;;
54871;SDS011;43914;57.680;11.982;2023-07-08T02:52:08;10.10;;;3.40;;
54871;SDS011;43914;57.680;11.982;2023-07-08T02:54:34;12.50;;;3.60;;
54871;SDS011;43914;57.680;11.982;2023-07-08T02:56:59;10.60;;;3.30;;
54871;SDS011;43914;57.680;11.982;2023-07-08T02:59:25;14.60;;;3.50;;
54871;SDS011;43914;57.680;11.982;2023-07-08T03:01:52;11.10;;;3.50;;
54871;SDS011;43914;57.680;11.982;2023-07-08T03:04:18;11.90;;;3.40;;
54871;SDS011;43914;57.680;11.982;2023-07-08T03:06:49;12.90;;;3.70;;
54871;SDS011;43914;57.680;11.982;2023-07-08T03:09:15;13.90;;;3.50;;
54871;SDS011;43914;57.680;11.982;2023-07-08T03:11:42;13.60;;;3.50;;
54871;SDS011;43914;57.680;11.982;2023-07-08T03:14:08;13.10;;;3.40;;
54871;SDS011;43914;57.680;11.982;2023-07-08T03:16:33;9.90;;;3.20;;
54871;SDS011;43914;57.680;11.982;2023-07-08T03:18:59;13.20;;;3.30;;
54871;SDS011;43914;57.680;11.982;2023-07-08T03:21:24;11.40;;;3.20;;
54871;SDS011;43914;57.680;11.982;2023-07-08T03:23:50;12.30;;;3.50;;
54871;SDS011;43914;57.680;11.982;2023-07-08T03:26:23;13.40;;;3.90;;
54871;SDS011;43914;57.680;11.982;2023-07-08T03:28:49;14.20;;;3.30;;
54871;SDS011;43914;57.680;11.982;2023-07-08T03:31:15;12.00;;;3.20;;
54871;SDS011;43914;57.680;11.982;2023-07-08T03:33:41;13.20;;;3.70;;
54871;SDS011;43914;57.680;11.982;2023-07-08T03:36:11;12.30;;;3.50;;
54871;SDS011;43914;57.680;11.982;2023-07-08T03:38:48;12.50;;;3.40;;
54871;SDS011;43914;57.680;11.982;2023-07-08T03:41:15;11.80;;;3.50;;
54871;SDS011;43914;57.680;11.982;2023-07-08T03:43:40;14.30;;;4.10;;
54871;SDS011;43914;57.680;11.982;2023-07-08T03:46:07;14.80;;;3.60;;
54871;SDS011;43914;57.680;11.982;2023-07-08T03:48:37;15.20;;;3.60;;
54871;SDS011;43914;57.680;11.982;2023-07-08T03:51:04;10.00;;;3.50;;
54871;SDS011;43914;57.680;11.982;2023-07-08T03:53:32;12.10;;;3.30;;
54871;SDS011;43914;57.680;11.982;2023-07-08T03:55:58;9.30;;;3.00;;
54871;SDS011;43914;57.680;11.982;2023-07-08T03:58:23;12.30;;;3.30;;
54871;SDS011;43914;57.680;11.982;2023-07-08T04:00:49;12.80;;;3.20;;
54871;SDS011;43914;57.680;11.982;2023-07-08T04:03:14;12.90;;;3.40;;
54871;SDS011;43914;57.680;11.982;2023-07-08T04:05:39;11.60;;;3.00;;
54871;SDS011;43914;57.680;11.982;2023-07-08T04:08:05;11.20;;;3.10;;
54871;SDS011;43914;57.680;11.982;2023-07-08T04:10:30;10.10;;;3.50;;
54871;SDS011;43914;57.680;11.982;2023-07-08T04:12:56;14.20;;;3.20;;
54871;SDS011;43914;57.680;11.982;2023-07-08T04:15:21;12.90;;;3.50;;
54871;SDS011;43914;57.680;11.982;2023-07-08T04:17:50;11.10;;;3.20;;
54871;SDS011;43914;57.680;11.982;2023-07-08T04:20:17;11.20;;;3.40;;
54871;SDS011;43914;57.680;11.982;2023-07-08T04:22:44;11.10;;;3.40;;
54871;SDS011;43914;57.680;11.982;2023-07-08T04:25:11;11.60;;;3.60;;
54871;SDS011;43914;57.680;11.982;2023-07-08T04:27:39;13.20;;;4.70;;
54871;SDS011;43914;57.680;11.982;2023-07-08T04:30:05;14.20;;;3.50;;
54871;SDS011;43914;57.680;11.982;2023-07-08T04:32:34;11.90;;;3.70;;
54871;SDS011;43914;57.680;11.982;2023-07-08T04:35:03;12.90;;;4.10;;
54871;SDS011;43914;57.680;11.982;2023-07-08T04:37:28;11.50;;;3.80;;
54871;SDS011;43914;57.680;11.982;2023-07-08T04:39:54;10.60;;;3.90;;
54871;SDS011;43914;57.680;11.982;2023-07-08T04:42:19;12.50;;;3.90;;
54871;SDS011;43914;57.680;11.982;2023-07-08T04:44:45;17.40;;;3.80;;
54871;SDS011;43914;57.680;11.982;2023-07-08T04:47:10;14.10;;;4.20;;
54871;SDS011;43914;57.680;11.982;2023-07-08T04:49:39;11.90;;;3.50;;
54871;SDS011;43914;57.680;11.982;2023-07-08T04:52:08;10.90;;;3.40;;
54871;SDS011;43914;57.680;11.982;2023-07-08T04:54:34;10.30;;;3.50;;
54871;SDS011;43914;57.680;11.982;2023-07-08T04:57:00;12.20;;;3.40;;
54871;SDS011;43914;57.680;11.982;2023-07-08T04:59:25;14.10;;;3.90;;
54871;SDS011;43914;57.680;11.982;2023-07-08T05:01:51;10.40;;;3.50;;
54871;SDS011;43914;57.680;11.982;2023-07-08T05:04:19;9.90;;;3.40;;
54871;SDS011;43914;57.680;11.982;2023-07-08T05:06:45;11.40;;;3.40;;
54871;SDS011;43914;57.680;11.982;2023-07-08T05:09:11;8.60;;;3.10;;
54871;SDS011;43914;57.680;11.982;2023-07-08T05:11:37;10.50;;;3.60;;
54871;SDS011;43914;57.680;11.982;2023-07-08T05:14:03;11.00;;;2.90;;
54871;SDS011;43914;57.680;11.982;2023-07-08T05:16:29;19.90;;;5.60;;
54871;SDS011;43914;57.680;11.982;2023-07-08T05:18:54;10.30;;;3.20;;
54871;SDS011;43914;57.680;11.982;2023-07-08T05:21:20;12.80;;;3.50;;
54871;SDS011;43914;57.680;11.982;2023-07-08T05:23:47;13.10;;;3.30;;
54871;SDS011;43914;57.680;11.982;2023-07-08T05:26:16;14.10;;;3.40;;
54871;SDS011;43914;57.680;11.982;2023-07-08T05:28:42;9.50;;;3.00;;
54871;SDS011;43914;57.680;11.982;2023-07-08T05:31:08;11.60;;;3.20;;
54871;SDS011;43914;57.680;11.982;2023-07-08T05:33:34;11.20;;;3.00;;
54871;SDS011;43914;57.680;11.982;2023-07-08T05:35:59;9.00;;;3.10;;
54871;SDS011;43914;57.680;11.982;2023-07-08T05:38:26;11.30;;;3.00;;
54871;SDS011;43914;57.680;11.982;2023-07-08T05:40:55;11.60;;;3.30;;
54871;SDS011;43914;57.680;11.982;2023-07-08T05:43:22;9.50;;;3.00;;
54871;SDS011;43914;57.680;11.982;2023-07-08T05:45:47;10.40;;;3.20;;
54871;SDS011;43914;57.680;11.982;2023-07-08T05:48:13;12.80;;;3.20;;
54871;SDS011;43914;57.680;11.982;2023-07-08T05:50:39;13.30;;;3.70;;
54871;SDS011;43914;57.680;11.982;2023-07-08T05:53:08;9.10;;;2.80;;
54871;SDS011;43914;57.680;11.982;2023-07-08T05:55:35;12.40;;;3.40;;
54871;SDS011;43914;57.680;11.982;2023-07-08T05:58:00;12.70;;;3.30;;
54871;SDS011;43914;57.680;11.982;2023-07-08T06:00:26;9.30;;;2.90;;
54871;SDS011;43914;57.680;11.982;2023-07-08T06:02:52;9.40;;;3.20;;
54871;SDS011;43914;57.680;11.982;2023-07-08T06:05:17;10.40;;;2.90;;
54871;SDS011;43914;57.680;11.982;2023-07-08T06:07:43;13.80;;;3.20;;
54871;SDS011;43914;57.680;11.982;2023-07-08T06:10:08;12.80;;;3.20;;
54871;SDS011;43914;57.680;11.982;2023-07-08T06:12:34;9.80;;;3.20;;
54871;SDS011;43914;57.680;11.982;2023-07-08T06:14:59;9.90;;;2.70;;
54871;SDS011;43914;57.680;11.982;2023-07-08T06:17:25;11.00;;;3.10;;
54871;SDS011;43914;57.680;11.982;2023-07-08T06:19:51;10.10;;;3.00;;
54871;SDS011;43914;57.680;11.982;2023-07-08T06:22:16;9.50;;;3.00;;
54871;SDS011;43914;57.680;11.982;2023-07-08T06:24:42;12.10;;;3.10;;
54871;SDS011;43914;57.680;11.982;2023-07-08T06:27:07;9.70;;;2.80;;
54871;SDS011;43914;57.680;11.982;2023-07-08T06:29:33;9.90;;;2.70;;
54871;SDS011;43914;57.680;11.982;2023-07-08T06:32:02;11.00;;;3.10;;
54871;SDS011;43914;57.680;11.982;2023-07-08T06:34:28;8.90;;;2.90;;
54871;SDS011;43914;57.680;11.982;2023-07-08T06:36:54;9.90;;;2.60;;
54871;SDS011;43914;57.680;11.982;2023-07-08T06:39:19;13.60;;;3.40;;
54871;SDS011;43914;57.680;11.982;2023-07-08T06:41:45;9.10;;;2.70;;
54871;SDS011;43914;57.680;11.982;2023-07-08T06:44:11;8.30;;;2.20;;
54871;SDS011;43914;57.680;11.982;2023-07-08T06:46:37;9.30;;;2.60;;
54871;SDS011;43914;57.680;11.982;2023-07-08T06:49:02;7.60;;;2.60;;
54871;SDS011;43914;57.680;11.982;2023-07-08T06:51:28;9.40;;;2.70;;
54871;SDS011;43914;57.680;11.982;2023-07-08T06:53:54;11.00;;;2.80;;
54871;SDS011;43914;57.680;11.982;2023-07-08T06:56:20;9.10;;;2.50;;
54871;SDS011;43914;57.680;11.982;2023-07-08T06:58:46;12.10;;;2.60;;
54871;SDS011;43914;57.680;11.982;2023-07-08T07:01:11;14.10;;;2.80;;
54871;SDS011;43914;57.680;11.982;2023-07-08T07:03:37;12.20;;;2.80;;
54871;SDS011;43914;57.680;11.982;2023-07-08T07:06:03;10.70;;;2.60;;
54871;SDS011;43914;57.680;11.982;2023-07-08T07:08:28;10.20;;;2.70;;
54871;SDS011;43914;57.680;11.982;2023-07-08T07:10:54;9.00;;;2.40;;
54871;SDS011;43914;57.680;11.982;2023-07-08T07:13:19;8.80;;;2.80;;
54871;SDS011;43914;57.680;11.982;2023-07-08T07:15:47;9.40;;;2.80;;
54871;SDS011;43914;57.680;11.982;2023-07-08T07:18:14;8.30;;;2.40;;
54871;SDS011;43914;57.680;11.982;2023-07-08T07:20:43;10.70;;;2.60;;
54871;SDS011;43914;57.680;11.982;2023-07-08T07:23:13;14.00;;;3.70;;
54871;SDS011;43914;57.680;11.982;2023-07-08T07:25:39;10.20;;;2.40;;
54871;SDS011;43914;57.680;11.982;2023-07-08T07:28:04;6.40;;;2.20;;
54871;SDS011;43914;57.680;11.982;2023-07-08T07:30:30;10.80;;;2.40;;
54871;SDS011;43914;57.680;11.982;2023-07-08T07:32:58;7.70;;;2.10;;
54871;SDS011;43914;57.680;11.982;2023-07-08T07:35:25;9.50;;;2.40;;
54871;SDS011;43914;57.680;11.982;2023-07-08T07:37:50;9.90;;;2.50;;
54871;SDS011;43914;57.680;11.982;2023-07-08T07:40:16;8.50;;;2.40;;
54871;SDS011;43914;57.680;11.982;2023-07-08T07:42:42;9.00;;;2.40;;
54871;SDS011;43914;57.680;11.982;2023-07-08T07:45:10;7.70;;;2.20;;
54871;SDS011;43914;57.680;11.982;2023-07-08T07:47:36;10.70;;;2.60;;
54871;SDS011;43914;57.680;11.982;2023-07-08T07:50:05;9.60;;;2.50;;
54871;SDS011;43914;57.680;11.982;2023-07-08T07:52:32;10.50;;;3.00;;
54871;SDS011;43914;57.680;11.982;2023-07-08T07:54:57;9.40;;;2.60;;
54871;SDS011;43914;57.680;11.982;2023-07-08T07:57:23;9.10;;;2.40;;
54871;SDS011;43914;57.680;11.982;2023-07-08T07:59:49;8.60;;;2.70;;
54871;SDS011;43914;57.680;11.982;2023-07-08T08:02:18;8.20;;;2.70;;
54871;SDS011;43914;57.680;11.982;2023-07-08T08:04:44;8.80;;;2.50;;
54871;SDS011;43914;57.680;11.982;2023-07-08T08:07:09;9.90;;;2.20;;
54871;SDS011;43914;57.680;11.982;2023-07-08T08:09:35;9.20;;;2.50;;
54871;SDS011;43914;57.680;11.982;2023-07-08T08:12:02;10.90;;;2.70;;
54871;SDS011;43914;57.680;11.982;2023-07-08T08:14:29;8.50;;;2.30;;
54871;SDS011;43914;57.680;11.982;2023-07-08T08:16:55;7.90;;;2.40;;
54871;SDS011;43914;57.680;11.982;2023-07-08T08:19:20;9.00;;;2.40;;
54871;SDS011;43914;57.680;11.982;2023-07-08T08:21:47;7.40;;;2.60;;
54871;SDS011;43914;57.680;11.982;2023-07-08T08:24:13;8.60;;;2.30;;
54871;SDS011;43914;57.680;11.982;2023-07-08T08:26:38;9.10;;;2.50;;
54871;SDS011;43914;57.680;11.982;2023-07-08T08:29:04;10.50;;;2.70;;
54871;SDS011;43914;57.680;11.982;2023-07-08T08:31:29;8.80;;;2.50;;
54871;SDS011;43914;57.680;11.982;2023-07-08T08:33:56;15.90;;;2.60;;
54871;SDS011;43914;57.680;11.982;2023-07-08T08:36:22;8.80;;;2.30;;
54871;SDS011;43914;57.680;11.982;2023-07-08T08:38:47;8.90;;;2.70;;
54871;SDS011;43914;57.680;11.982;2023-07-08T08:41:14;11.80;;;2.40;;
54871;SDS011;43914;57.680;11.982;2023-07-08T08:43:42;6.30;;;2.00;;
54871;SDS011;43914;57.680;11.982;2023-07-08T08:49:30;11.80;;;2.50;;
54871;SDS011;43914;57.680;11.982;2023-07-08T08:52:02;8.00;;;2.20;;
54871;SDS011;43914;57.680;11.982;2023-07-08T08:54:29;7.70;;;2.10;;
54871;SDS011;43914;57.680;11.982;2023-07-08T09:04:53;8.60;;;2.10;;
54871;SDS011;43914;57.680;11.982;2023-07-08T09:07:20;8.50;;;2.40;;
54871;SDS011;43914;57.680;11.982;2023-07-08T09:10:03;10.90;;;2.50;;
54871;SDS011;43914;57.680;11.982;2023-07-08T09:12:34;9.70;;;2.90;;
54871;SDS011;43914;57.680;11.982;2023-07-08T09:15:03;10.50;;;2.30;;
54871;SDS011;43914;57.680;11.982;2023-07-08T09:17:37;8.40;;;2.50;;
54871;SDS011;43914;57.680;11.982;2023-07-08T09:25:40;7.20;;;2.20;;
54871;SDS011;43914;57.680;11.982;2023-07-08T09:28:13;8.70;;;2.20;;
54871;SDS011;43914;57.680;11.982;2023-07-08T09:30:39;7.90;;;1.90;;
54871;SDS011;43914;57.680;11.982;2023-07-08T09:33:06;9.80;;;2.30;;
54871;SDS011;43914;57.680;11.982;2023-07-08T09:35:41;8.20;;;2.30;;
54871;SDS011;43914;57.680;11.982;2023-07-08T09:38:15;9.70;;;2.20;;
54871;SDS011;43914;57.680;11.982;2023-07-08T09:40:52;8.30;;;2.10;;
54871;SDS011;43914;57.680;11.982;2023-07-08T09:43:23;4.80;;;1.50;;
54871;SDS011;43914;57.680;11.982;2023-07-08T09:46:01;6.60;;;2.10;;
54871;SDS011;43914;57.680;11.982;2023-07-08T09:48:28;8.10;;;2.20;;
54871;SDS011;43914;57.680;11.982;2023-07-08T09:50:58;6.50;;;2.00;;
54871;SDS011;43914;57.680;11.982;2023-07-08T09:53:25;6.50;;;1.90;;
54871;SDS011;43914;57.680;11.982;2023-07-08T09:55:58;7.00;;;2.00;;
54871;SDS011;43914;57.680;11.982;2023-07-08T10:01:23;7.80;;;2.20;;
54871;SDS011;43914;57.680;11.982;2023-07-08T10:03:51;8.10;;;2.20;;
54871;SDS011;43914;57.680;11.982;2023-07-08T10:06:29;8.30;;;2.60;;
54871;SDS011;43914;57.680;11.982;2023-07-08T10:09:00;7.40;;;2.60;;
54871;SDS011;43914;57.680;11.982;2023-07-08T10:11:29;7.20;;;2.40;;
54871;SDS011;43914;57.680;11.982;2023-07-08T10:13:59;8.50;;;2.20;;
54871;SDS011;43914;57.680;11.982;2023-07-08T10:16:32;9.90;;;2.30;;
54871;SDS011;43914;57.680;11.982;2023-07-08T10:18:59;8.70;;;2.20;;
54871;SDS011;43914;57.680;11.982;2023-07-08T10:43:47;8.20;;;2.40;;
54871;SDS011;43914;57.680;11.982;2023-07-08T10:46:47;7.80;;;2.20;;
54871;SDS011;43914;57.680;11.982;2023-07-08T10:49:31;7.30;;;2.20;;
54871;SDS011;43914;57.680;11.982;2023-07-08T10:52:07;9.10;;;2.40;;
54871;SDS011;43914;57.680;11.982;2023-07-08T10:54:51;8.80;;;2.50;;
54871;SDS011;43914;57.680;11.982;2023-07-08T10:57:47;8.10;;;2.30;;
54871;SDS011;43914;57.680;11.982;2023-07-08T11:00:27;9.20;;;2.50;;
54871;SDS011;43914;57.680;11.982;2023-07-08T11:05:31;8.90;;;2.30;;
54871;SDS011;43914;57.680;11.982;2023-07-08T11:08:16;7.30;;;2.00;;
54871;SDS011;43914;57.680;11.982;2023-07-08T11:13:24;8.30;;;2.30;;
54871;SDS011;43914;57.680;11.982;2023-07-08T11:15:58;8.90;;;2.60;;
54871;SDS011;43914;57.680;11.982;2023-07-08T11:21:03;9.80;;;2.40;;
54871;SDS011;43914;57.680;11.982;2023-07-08T11:26:20;9.30;;;2.10;;
54871;SDS011;43914;57.680;11.982;2023-07-08T11:28:54;7.10;;;2.00;;
54871;SDS011;43914;57.680;11.982;2023-07-08T11:31:24;9.50;;;2.10;;
54871;SDS011;43914;57.680;11.982;2023-07-08T11:33:53;8.30;;;2.10;;
54871;SDS011;43914;57.680;11.982;2023-07-08T11:36:19;7.20;;;2.00;;
54871;SDS011;43914;57.680;11.982;2023-07-08T11:38:48;8.30;;;2.40;;
54871;SDS011;43914;57.680;11.982;2023-07-08T11:41:15;10.50;;;2.30;;
54871;SDS011;43914;57.680;11.982;2023-07-08T11:43:49;6.80;;;2.20;;
54871;SDS011;43914;57.680;11.982;2023-07-08T11:46:20;8.20;;;2.00;;
54871;SDS011;43914;57.680;11.982;2023-07-08T11:48:51;6.30;;;2.20;;
54871;SDS011;43914;57.680;11.982;2023-07-08T11:51:19;10.70;;;2.30;;
54871;SDS011;43914;57.680;11.982;2023-07-08T11:59:20;7.70;;;2.20;;
54871;SDS011;43914;57.680;11.982;2023-07-08T12:01:54;6.50;;;1.90;;
54871;SDS011;43914;57.680;11.982;2023-07-08T12:04:32;9.70;;;2.30;;
54871;SDS011;43914;57.680;11.982;2023-07-08T12:07:19;9.30;;;2.30;;
54871;SDS011;43914;57.680;11.982;2023-07-08T12:09:49;6.80;;;2.30;;
54871;SDS011;43914;57.680;11.982;2023-07-08T12:12:27;8.60;;;2.30;;
54871;SDS011;43914;57.680;11.982;2023-07-08T12:15:04;7.70;;;2.00;;
54871;SDS011;43914;57.680;11.982;2023-07-08T12:17:50;7.50;;;2.40;;
54871;SDS011;43914;57.680;11.982;2023-07-08T12:22:49;6.50;;;2.00;;
54871;SDS011;43914;57.680;11.982;2023-07-08T12:25:17;8.60;;;2.10;;
54871;SDS011;43914;57.680;11.982;2023-07-08T12:27:45;7.40;;;2.20;;
54871;SDS011;43914;57.680;11.982;2023-07-08T12:30:12;7.20;;;2.30;;
54871;SDS011;43914;57.680;11.982;2023-07-08T12:32:40;7.80;;;2.10;;
54871;SDS011;43914;57.680;11.982;2023-07-08T12:35:10;6.90;;;1.90;;
54871;SDS011;43914;57.680;11.982;2023-07-08T12:37:51;6.50;;;1.90;;
54871;SDS011;43914;57.680;11.982;2023-07-08T12:40:20;7.10;;;2.00;;
54871;SDS011;43914;57.680;11.982;2023-07-08T12:42:47;6.00;;;1.80;;
54871;SDS011;43914;57.680;11.982;2023-07-08T12:45:13;7.60;;;2.20;;
54871;SDS011;43914;57.680;11.982;2023-07-08T12:47:44;8.80;;;2.10;;
54871;SDS011;43914;57.680;11.982;2023-07-08T12:50:11;9.20;;;2.40;;
54871;SDS011;43914;57.680;11.982;2023-07-08T12:52:37;7.60;;;2.10;;
54871;SDS011;43914;57.680;11.982;2023-07-08T12:55:03;7.10;;;2.10;;
54871;SDS011;43914;57.680;11.982;2023-07-08T12:57:28;7.50;;;2.20;;
54871;SDS011;43914;57.680;11.982;2023-07-08T12:59:54;8.10;;;2.20;;
54871;SDS011;43914;57.680;11.982;2023-07-08T13:02:20;9.90;;;2.10;;
54871;SDS011;43914;57.680;11.982;2023-07-08T13:04:49;9.50;;;2.50;;
54871;SDS011;43914;57.680;11.982;2023-07-08T13:07:22;6.60;;;2.00;;
54871;SDS011;43914;57.680;11.982;2023-07-08T13:09:59;8.40;;;2.10;;
54871;SDS011;43914;57.680;11.982;2023-07-08T13:12:25;7.50;;;2.20;;
54871;SDS011;43914;57.680;11.982;2023-07-08T13:14:52;7.80;;;1.90;;
54871;SDS011;43914;57.680;11.982;2023-07-08T13:17:21;6.30;;;1.90;;
54871;SDS011;43914;57.680;11.982;2023-07-08T13:19:47;6.30;;;1.90;;
54871;SDS011;43914;57.680;11.982;2023-07-08T13:22:18;7.00;;;2.00;;
54871;SDS011;43914;57.680;11.982;2023-07-08T13:24:45;6.70;;;2.00;;
54871;SDS011;43914;57.680;11.982;2023-07-08T13:27:22;8.10;;;2.00;;
54871;SDS011;43914;57.680;11.982;2023-07-08T13:30:06;6.80;;;1.70;;
54871;SDS011;43914;57.680;11.982;2023-07-08T13:32:42;7.40;;;2.00;;
54871;SDS011;43914;57.680;11.982;2023-07-08T13:38:13;7.60;;;2.10;;
54871;SDS011;43914;57.680;11.982;2023-07-08T13:41:03;6.10;;;1.90;;
54871;SDS011;43914;57.680;11.982;2023-07-08T13:43:34;7.80;;;2.10;;
54871;SDS011;43914;57.680;11.982;2023-07-08T13:46:02;8.90;;;2.10;;
54871;SDS011;43914;57.680;11.982;2023-07-08T13:48:47;7.70;;;2.20;;
54871;SDS011;43914;57.680;11.982;2023-07-08T13:51:17;12.20;;;2.70;;
54871;SDS011;43914;57.680;11.982;2023-07-08T13:53:47;7.10;;;1.90;;
54871;SDS011;43914;57.680;11.982;2023-07-08T13:59:24;7.50;;;2.00;;
54871;SDS011;43914;57.680;11.982;2023-07-08T14:01:32;8.10;;;2.10;;
54871;SDS011;43914;57.680;11.982;2023-07-08T14:03:59;8.60;;;2.20;;
54871;SDS011;43914;57.680;11.982;2023-07-08T14:06:30;9.70;;;2.40;;
54871;SDS011;43914;57.680;11.982;2023-07-08T14:11:39;7.40;;;2.00;;
54871;SDS011;43914;57.680;11.982;2023-07-08T14:14:05;8.40;;;1.90;;
54871;SDS011;43914;57.680;11.982;2023-07-08T14:16:33;5.40;;;1.80;;
54871;SDS011;43914;57.680;11.982;2023-07-08T14:19:03;5.50;;;1.90;;
54871;SDS011;43914;57.680;11.982;2023-07-08T14:21:33;9.60;;;2.40;;
54871;SDS011;43914;57.680;11.982;2023-07-08T14:24:01;6.40;;;2.00;;
54871;SDS011;43914;57.680;11.982;2023-07-08T14:26:28;23.20;;;3.30;;
54871;SDS011;43914;57.680;11.982;2023-07-08T14:28:54;10.40;;;2.00;;
54871;SDS011;43914;57.680;11.982;2023-07-08T14:31:23;7.60;;;2.10;;
54871;SDS011;43914;57.680;11.982;2023-07-08T14:33:52;9.30;;;2.10;;
54871;SDS011;43914;57.680;11.982;2023-07-08T14:36:27;6.60;;;2.00;;
54871;SDS011;43914;57.680;11.982;2023-07-08T14:38:53;6.40;;;2.00;;
54871;SDS011;43914;57.680;11.982;2023-07-08T14:41:18;7.20;;;2.20;;
54871;SDS011;43914;57.680;11.982;2023-07-08T14:43:44;7.20;;;1.90;;
54871;SDS011;43914;57.680;11.982;2023-07-08T14:46:09;5.70;;;2.10;;
54871;SDS011;43914;57.680;11.982;2023-07-08T14:48:35;6.30;;;1.90;;
54871;SDS011;43914;57.680;11.982;2023-07-08T14:51:01;6.70;;;2.10;;
54871;SDS011;43914;57.680;11.982;2023-07-08T14:53:26;7.30;;;2.10;;
54871;SDS011;43914;57.680;11.982;2023-07-08T14:55:53;5.70;;;1.90;;
54871;SDS011;43914;57.680;11.982;2023-07-08T14:58:23;8.30;;;2.20;;
54871;SDS011;43914;57.680;11.982;2023-07-08T15:00:53;7.10;;;2.30;;
54871;SDS011;43914;57.680;11.982;2023-07-08T15:03:22;8.10;;;2.00;;
54871;SDS011;43914;57.680;11.982;2023-07-08T15:05:49;10.30;;;2.10;;
54871;SDS011;43914;57.680;11.982;2023-07-08T15:08:14;9.50;;;2.30;;
54871;SDS011;43914;57.680;11.982;2023-07-08T15:10:41;7.10;;;2.20;;
54871;SDS011;43914;57.680;11.982;2023-07-08T15:13:17;6.40;;;2.10;;
54871;SDS011;43914;57.680;11.982;2023-07-08T15:15:44;9.00;;;2.10;;
54871;SDS011;43914;57.680;11.982;2023-07-08T15:18:11;6.50;;;1.90;;
54871;SDS011;43914;57.680;11.982;2023-07-08T15:20:38;5.50;;;1.80;;
54871;SDS011;43914;57.680;11.982;2023-07-08T15:23:05;6.90;;;1.90;;
54871;SDS011;43914;57.680;11.982;2023-07-08T15:25:31;8.50;;;2.10;;
54871;SDS011;43914;57.680;11.982;2023-07-08T15:27:59;6.60;;;2.10;;
54871;SDS011;43914;57.680;11.982;2023-07-08T15:30:27;8.10;;;2.10;;
54871;SDS011;43914;57.680;11.982;2023-07-08T15:32:54;9.70;;;2.50;;
54871;SDS011;43914;57.680;11.982;2023-07-08T15:35:20;8.20;;;2.20;;
54871;SDS011;43914;57.680;11.982;2023-07-08T15:37:55;5.80;;;2.10;;
54871;SDS011;43914;57.680;11.982;2023-07-08T15:40:21;4.80;;;1.70;;
54871;SDS011;43914;57.680;11.982;2023-07-08T15:42:49;7.20;;;2.30;;
54871;SDS011;43914;57.680;11.982;2023-07-08T15:47:49;16.50;;;2.80;;
54871;SDS011;43914;57.680;11.982;2023-07-08T15:50:16;6.80;;;2.10;;
54871;SDS011;43914;57.680;11.982;2023-07-08T15:52:44;7.30;;;1.90;;
54871;SDS011;43914;57.680;11.982;2023-07-08T15:55:11;5.30;;;1.70;;
54871;SDS011;43914;57.680;11.982;2023-07-08T15:57:42;8.70;;;2.10;;
54871;SDS011;43914;57.680;11.982;2023-07-08T16:00:15;7.60;;;1.80;;